^^
Datos históricos de la estación: Murcia-Puente Tocinos
 
Diario Informe para Abril 14, 2024 Unidades:  Métrico    Ingés   Ambas
Diario Semanal Mensual Anual
  Actual: Máxima: Mínima: Promedio:
Temperatura: 26.1 °C 26.8 °C 13.8 °C 19.5 °C
Punto de rocio: 6.2 °C 8.6 °C 4.5 °C 6.3 °C
Humedad: 28% 60% 26.6% 44%
Velocidad viento: 20.6km/h 26.4km/h 2.5km/h 11.5km/h
Racha viento: 13.7km/h 14.8km/h - -
VientoNE - - SSE
Presión: 1021.3 hPa 1026.4 hPa 1021.3 hPa -
Precipitación: 0.0 mm      
 
 
Tabla de datos para Abril 14, 2024
Hora Temperatura Punto de rocio Presión Viento Velocidad viento Racha viento Humedad Intensidad lluvia(por hora) Nubes
00:04 16.6 °C 8.1 °C 1026.3 hPa NNO 4.3 km/h 3.9 km/h 57% 0.0 mm
00:09 16.6 °C 8.2 °C 1026.3 hPa NNE 6.4 km/h 3.9 km/h 57.7% 0.0 mm
00:14 16.5 °C 8.3 °C 1026.4 hPa NNE 7.1 km/h 2.9 km/h 58.5% 0.0 mm
00:19 16.4 °C 8.4 °C 1026.4 hPa NNE 5.8 km/h 4.7 km/h 59% 0.0 mm
00:24 16.4 °C 8.4 °C 1026.4 hPa NNE 3.8 km/h 4.7 km/h 59% 0.0 mm
00:29 16.4 °C 8.4 °C 1026.4 hPa NNO 3.8 km/h 4.7 km/h 59% 0.0 mm
00:34 16.4 °C 8.6 °C 1026.3 hPa NO 2.5 km/h 2.9 km/h 59.8% 0.0 mm
00:39 16.4 °C 8.6 °C 1026.3 hPa NO 5.9 km/h 2.9 km/h 60% 0.0 mm
00:44 16.4 °C 8.6 °C 1026.3 hPa Oeste 7.1 km/h 2.3 km/h 60% 0.0 mm
00:49 16.4 °C 8.5 °C 1026.3 hPa Oeste 4.4 km/h 3.9 km/h 59.7% 0.0 mm
00:54 16.4 °C 8.3 °C 1026.3 hPa Oeste 4.3 km/h 3.9 km/h 58.8% 0.0 mm
00:59 16.4 °C 8.1 °C 1026.3 hPa OSO 5.7 km/h 3.9 km/h 58% 0.0 mm
01:04 16.6 °C 8.1 °C 1026.2 hPa OSO 8.1 km/h 2.9 km/h 57.5% 0.0 mm
01:09 16.7 °C 8.1 °C 1026.2 hPa SO 7 km/h 5 km/h 57% 0.0 mm
01:14 16.7 °C 8.2 °C 1026.2 hPa SO 6.8 km/h 5 km/h 57% 0.0 mm
01:19 16.8 °C 8 °C 1026.2 hPa SSO 7.3 km/h 5 km/h 56.3% 0.0 mm
01:24 16.8 °C 8.1 °C 1026.2 hPa Sur 6.9 km/h 4.7 km/h 56.2% 0.0 mm
01:29 16.9 °C 8.3 °C 1026.2 hPa SSE 7.4 km/h 5 km/h 57% 0.0 mm
01:34 16.9 °C 8.3 °C 1026.2 hPa Sur 10.4 km/h 5 km/h 57% 0.0 mm
01:39 16.7 °C 8.1 °C 1026.2 hPa Sur 10.3 km/h 6.9 km/h 57% 0.0 mm
01:44 16.6 °C 8 °C 1026.2 hPa Sur 9 km/h 6.9 km/h 57% 0.0 mm
01:49 16.5 °C 7.9 °C 1026.1 hPa SO 6.7 km/h 6.9 km/h 57% 0.0 mm
01:54 16.6 °C 8 °C 1026.1 hPa Sur 7.1 km/h 6.4 km/h 57% 0.0 mm
01:59 16.6 °C 8.1 °C 1026.1 hPa Sur 6.9 km/h 6.4 km/h 57% 0.0 mm
02:04 16.7 °C 8.1 °C 1026.1 hPa SSE 8.2 km/h 4.7 km/h 56.9% 0.0 mm
02:09 16.7 °C 7.9 °C 1026.1 hPa Sur 7.4 km/h 5 km/h 56% 0.0 mm
02:14 16.7 °C 8 °C 1026.1 hPa SSE 9.2 km/h 5 km/h 56.5% 0.0 mm
02:19 16.5 °C 7.9 °C 1026.0 hPa SSE 10.1 km/h 6.9 km/h 57% 0.0 mm
02:24 16.4 °C 7.8 °C 1026.0 hPa Sur 9.4 km/h 6.9 km/h 57% 0.0 mm
02:29 16.3 °C 7.8 °C 1026.0 hPa Sur 10.1 km/h 7.6 km/h 57% 0.0 mm
02:34 16.3 °C 7.8 °C 1025.9 hPa SSO 8.5 km/h 7.6 km/h 57% 0.0 mm
02:39 16.3 °C 7.8 °C 1025.9 hPa SSO 7.9 km/h 7.6 km/h 57% 0.0 mm
02:44 16.3 °C 7.6 °C 1025.9 hPa SO 6.2 km/h 6.4 km/h 56.2% 0.0 mm
02:49 16.3 °C 7.5 °C 1025.8 hPa SO 5.4 km/h 6.4 km/h 56% 0.0 mm
02:54 16.3 °C 7.5 °C 1025.8 hPa SO 4.6 km/h 4.7 km/h 56% 0.0 mm
02:59 16.3 °C 7.5 °C 1025.8 hPa SO 3.8 km/h 4.7 km/h 56% 0.0 mm
03:04 16.3 °C 7.5 °C 1025.7 hPa SO 3.9 km/h 2.9 km/h 56% 0.0 mm
03:09 16.2 °C 7.4 °C 1025.7 hPa Oeste 4.4 km/h 2.9 km/h 56% 0.0 mm
03:14 16.2 °C 7.4 °C 1025.7 hPa Oeste 3 km/h 2.9 km/h 56% 0.0 mm
03:19 16 °C 7.4 °C 1025.5 hPa Oeste 5.1 km/h 2.9 km/h 56.4% 0.0 mm
03:24 15.8 °C 7.3 °C 1025.5 hPa Oeste 7 km/h 2.3 km/h 57% 0.0 mm
03:29 15.7 °C 7.2 °C 1025.5 hPa Oeste 5.6 km/h 3.9 km/h 57% 0.0 mm
03:34 15.6 °C 7.1 °C 1025.4 hPa ONO 4.6 km/h 3.9 km/h 57% 0.0 mm
03:39 15.5 °C 7 °C 1025.4 hPa ONO 5.1 km/h 3.9 km/h 57% 0.0 mm
03:44 15.5 °C 6.9 °C 1025.4 hPa OSO 5.7 km/h 3.2 km/h 56.5% 0.0 mm
03:49 15.5 °C 6.8 °C 1025.3 hPa OSO 6.3 km/h 3.9 km/h 56% 0.0 mm
03:54 15.5 °C 6.8 °C 1025.3 hPa SO 6 km/h 3.9 km/h 56% 0.0 mm
03:59 15.5 °C 6.5 °C 1025.3 hPa SO 7.3 km/h 3.9 km/h 55.1% 0.0 mm
04:04 15.6 °C 6.5 °C 1025.2 hPa SSO 8 km/h 3.9 km/h 54.6% 0.0 mm
04:09 15.6 °C 6.3 °C 1025.2 hPa SSO 7.6 km/h 5.8 km/h 53.7% 0.0 mm
04:14 15.7 °C 6.2 °C 1025.2 hPa Sur 7 km/h 5.8 km/h 53.2% 0.0 mm
04:19 15.7 °C 6.6 °C 1025.1 hPa SE 7.3 km/h 5.8 km/h 54.9% 0.0 mm
04:24 15.3 °C 6.6 °C 1025.1 hPa Sur 7.4 km/h 5 km/h 56.1% 0.0 mm
04:29 15 °C 6.5 °C 1025.1 hPa SSO 6.7 km/h 5 km/h 57% 0.0 mm
04:34 14.8 °C 6.4 °C 1025.0 hPa SSO 6.4 km/h 5 km/h 57% 0.0 mm
04:39 14.8 °C 6.3 °C 1025.0 hPa SO 5.8 km/h 5 km/h 56.8% 0.0 mm
04:44 14.8 °C 5.9 °C 1025.0 hPa SO 7.4 km/h 3.9 km/h 55.3% 0.0 mm
04:49 14.9 °C 5.9 °C 1024.9 hPa SSE 7.4 km/h 5 km/h 54.8% 0.0 mm
04:54 14.8 °C 6.2 °C 1024.9 hPa SSE 7.5 km/h 5 km/h 56.4% 0.0 mm
04:59 14.6 °C 6.1 °C 1024.9 hPa Sur 7.8 km/h 5.8 km/h 57% 0.0 mm
05:04 14.4 °C 6 °C 1024.8 hPa SSE 8.8 km/h 5.8 km/h 57% 0.0 mm
05:09 14.3 °C 5.7 °C 1024.8 hPa Sur 8.6 km/h 6.4 km/h 56.4% 0.0 mm
05:14 14.3 °C 5.6 °C 1024.8 hPa SSO 8.4 km/h 6.4 km/h 55.6% 0.0 mm
05:19 14.4 °C 5.5 °C 1024.7 hPa SSO 7.4 km/h 6.4 km/h 55% 0.0 mm
05:24 14.6 °C 5.5 °C 1024.7 hPa SSO 7.9 km/h 6.4 km/h 54.5% 0.0 mm
05:29 14.6 °C 5.4 °C 1024.7 hPa SSO 8 km/h 6.4 km/h 54% 0.0 mm
05:34 14.6 °C 5.4 °C 1024.7 hPa Sur 8.3 km/h 5.8 km/h 54% 0.0 mm
05:39 14.6 °C 5.4 °C 1024.7 hPa SO 8 km/h 5.8 km/h 54% 0.0 mm
05:44 14.6 °C 5.4 °C 1024.7 hPa SO 7.4 km/h 5.8 km/h 54% 0.0 mm
05:49 14.6 °C 5.4 °C 1024.6 hPa SO 5.5 km/h 5.8 km/h 54% 0.0 mm
05:54 14.6 °C 5.1 °C 1024.6 hPa OSO 6.6 km/h 4.7 km/h 53.1% 0.0 mm
05:59 14.6 °C 5.1 °C 1024.6 hPa OSO 7.4 km/h 4.7 km/h 53% 0.0 mm
06:04 14.6 °C 5 °C 1024.6 hPa SSO 7.9 km/h 3.9 km/h 52.4% 0.0 mm
06:09 14.5 °C 5.2 °C 1024.6 hPa SSE 7 km/h 5 km/h 53.7% 0.0 mm
06:14 14.3 °C 5.3 °C 1024.6 hPa SSO 8.2 km/h 5 km/h 54.9% 0.0 mm
06:19 14 °C 5.1 °C 1024.6 hPa SSO 7.5 km/h 5 km/h 55% 0.0 mm
06:24 13.9 °C 5 °C 1024.6 hPa SSO 7.9 km/h 5 km/h 55% 0.0 mm
06:29 13.9 °C 5 °C 1024.6 hPa SO 7 km/h 5.8 km/h 55% 0.0 mm
06:34 13.9 °C 5 °C 1024.5 hPa SSO 6.8 km/h 5.8 km/h 55% 0.0 mm
06:39 14 °C 5 °C 1024.5 hPa SSO 6.8 km/h 5.8 km/h 54.8% 0.0 mm
06:44 14.1 °C 4.9 °C 1024.5 hPa Sur 7.5 km/h 4.7 km/h 54% 0.0 mm
06:49 14 °C 4.8 °C 1024.5 hPa SSO 9 km/h 5.8 km/h 54% 0.0 mm
06:54 13.9 °C 4.7 °C 1024.5 hPa SSO 8.6 km/h 5.8 km/h 54% 0.0 mm
06:59 13.9 °C 4.7 °C 1024.5 hPa SSO 8.7 km/h 6.4 km/h 54% 0.0 mm
07:04 13.9 °C 4.7 °C 1024.5 hPa SSO 7.5 km/h 6.4 km/h 54% 0.0 mm
07:09 13.9 °C 4.8 °C 1024.5 hPa Sur 8.4 km/h 6.4 km/h 54% 0.0 mm
07:14 13.9 °C 4.8 °C 1024.6 hPa SSO 8.9 km/h 5.8 km/h 54% 0.0 mm
07:19 13.9 °C 4.7 °C 1024.6 hPa Sur 8.5 km/h 6.4 km/h 54% 0.0 mm
07:24 13.9 °C 4.7 °C 1024.6 hPa Sur 7.5 km/h 6.4 km/h 54% 0.0 mm
07:29 13.8 °C 4.9 °C 1024.7 hPa SSO 7.4 km/h 6.4 km/h 54.9% 0.0 mm
07:34 13.8 °C 4.9 °C 1024.7 hPa SSO 7.4 km/h 5.8 km/h 55% 0.0 mm
07:39 13.8 °C 4.9 °C 1024.7 hPa OSO 9.7 km/h 5.8 km/h 55% 0.0 mm
07:44 13.9 °C 4.7 °C 1024.7 hPa SO 10 km/h 5 km/h 54% 0.0 mm
07:49 13.9 °C 4.7 °C 1024.6 hPa SO 9.3 km/h 6.9 km/h 54% 0.0 mm
07:54 13.9 °C 4.7 °C 1024.6 hPa SO 8.5 km/h 6.9 km/h 53.9% 0.0 mm
07:59 14 °C 4.5 °C 1024.6 hPa SO 10.3 km/h 6.9 km/h 53% 0.0 mm
08:04 14.1 °C 4.6 °C 1024.6 hPa Sur 10.6 km/h 6.9 km/h 53% 0.0 mm
08:09 14.1 °C 4.7 °C 1024.6 hPa Sur 9.6 km/h 7.6 km/h 53% 0.0 mm
08:14 14.2 °C 4.7 °C 1025.0 hPa SSO 8.9 km/h 7.6 km/h 53% 0.0 mm
08:19 14.2 °C 4.7 °C 1025.0 hPa SSO 9 km/h 7.6 km/h 53% 0.0 mm
08:24 14.2 °C 4.8 °C 1025.0 hPa SSO 9.6 km/h 6.4 km/h 53% 0.0 mm
08:29 14.3 °C 4.7 °C 1025.2 hPa Sur 8.5 km/h 6.9 km/h 52.2% 0.0 mm
08:34 14.5 °C 4.7 °C 1025.2 hPa SSO 7.6 km/h 6.9 km/h 52% 0.0 mm
08:39 14.6 °C 4.8 °C 1025.2 hPa Sur 10.3 km/h 6.9 km/h 52% 0.0 mm
08:44 14.7 °C 4.9 °C 1025.3 hPa SSO 10.7 km/h 5.8 km/h 52% 0.0 mm
08:49 14.7 °C 4.9 °C 1025.3 hPa SSO 9.8 km/h 7.6 km/h 51.7% 0.0 mm
08:54 14.8 °C 4.8 °C 1025.3 hPa SSO 11 km/h 7.6 km/h 51% 0.0 mm
08:59 15 °C 4.9 °C 1025.3 hPa SO 10.1 km/h 7.6 km/h 50.8% 0.0 mm
09:04 15.2 °C 4.8 °C 1025.3 hPa SO 12.3 km/h 7.6 km/h 50% 0.0 mm
09:09 15.3 °C 4.6 °C 1025.3 hPa SO 11.4 km/h 8.4 km/h 49% 0.0 mm
09:14 15.4 °C 4.8 °C 1025.3 hPa SO 12.4 km/h 8.4 km/h 49% 0.0 mm
09:19 15.6 °C 4.6 °C 1025.2 hPa OSO 13.2 km/h 8.7 km/h 48% 0.0 mm
09:24 15.8 °C 4.7 °C 1025.2 hPa SO 11.8 km/h 8.7 km/h 47.9% 0.0 mm
09:29 16 °C 4.7 °C 1025.2 hPa SSO 11.4 km/h 8.7 km/h 47% 0.0 mm
09:34 16.3 °C 4.8 °C 1025.2 hPa SO 10.4 km/h 8.4 km/h 46.6% 0.0 mm
09:39 16.5 °C 4.9 °C 1025.2 hPa SO 10.6 km/h 8.4 km/h 46% 0.0 mm
09:44 16.7 °C 5 °C 1025.2 hPa SO 9 km/h 7.6 km/h 46% 0.0 mm
09:49 17 °C 5 °C 1025.1 hPa SSO 11.6 km/h 7.6 km/h 45.1% 0.0 mm
09:54 17.2 °C 5.1 °C 1025.1 hPa SO 10.2 km/h 6.9 km/h 45% 0.0 mm
09:59 17.3 °C 5.1 °C 1025.1 hPa SO 11.9 km/h 7.6 km/h 44.6% 0.0 mm
10:04 17.4 °C 5 °C 1024.9 hPa SSO 12.4 km/h 7.6 km/h 44% 0.0 mm
10:09 17.7 °C 5.2 °C 1024.9 hPa SSO 11.6 km/h 8.4 km/h 44% 0.0 mm
10:14 17.8 °C 5 °C 1024.9 hPa SSO 11.8 km/h 8.4 km/h 43% 0.0 mm
10:19 17.9 °C 5.1 °C 1024.9 hPa SSO 12.8 km/h 8.4 km/h 43% 0.0 mm
10:24 18 °C 5.3 °C 1024.9 hPa SSO 13.4 km/h 8.4 km/h 43% 0.0 mm
10:29 18.2 °C 5.1 °C 1025.0 hPa SSO 10.9 km/h 8.7 km/h 42.2% 0.0 mm
10:34 18.4 °C 5.2 °C 1025.0 hPa SO 12.3 km/h 8.7 km/h 42% 0.0 mm
10:39 18.6 °C 5.4 °C 1025.0 hPa Sur 12.9 km/h 8.7 km/h 42% 0.0 mm
10:44 18.8 °C 5.4 °C 1025.0 hPa SSO 11.1 km/h 8.4 km/h 41.4% 0.0 mm
10:49 19 °C 5.5 °C 1024.9 hPa SSO 11.9 km/h 9.5 km/h 41% 0.0 mm
10:54 19.2 °C 5.4 °C 1024.9 hPa SSO 9.8 km/h 9.5 km/h 40.3% 0.0 mm
10:59 19.4 °C 5.5 °C 1024.9 hPa SSO 9.3 km/h 9.5 km/h 40% 0.0 mm
11:04 19.8 °C 5.5 °C 1024.9 hPa Sur 10.6 km/h 7.6 km/h 39.2% 0.0 mm
11:09 20.1 °C 5.7 °C 1024.9 hPa Sur 11.8 km/h 7.6 km/h 39% 0.0 mm
11:14 20.2 °C 5.6 °C 1024.9 hPa SSO 11.8 km/h 7.6 km/h 38.5% 0.0 mm
11:19 20.3 °C 5.5 °C 1024.8 hPa Sur 11 km/h 8.7 km/h 38% 0.0 mm
11:24 20.6 °C 5.7 °C 1024.8 hPa SSO 10.8 km/h 8.7 km/h 38% 0.0 mm
11:29 20.7 °C 5.9 °C 1024.8 hPa SO 9.3 km/h 8.7 km/h 38% 0.0 mm
11:34 21 °C 5.9 °C 1024.7 hPa SSO 10.8 km/h 7.6 km/h 37.5% 0.0 mm
11:39 21.3 °C 5.8 °C 1024.7 hPa SO 10.7 km/h 7.6 km/h 36.5% 0.0 mm
11:44 21.4 °C 5.7 °C 1024.7 hPa SO 9.3 km/h 6.4 km/h 36% 0.0 mm
11:49 21.7 °C 5.9 °C 1024.6 hPa SSO 8.4 km/h 6.4 km/h 35.8% 0.0 mm
11:54 22 °C 6 °C 1024.6 hPa SSE 8 km/h 6.4 km/h 35.4% 0.0 mm
11:59 22.4 °C 6.2 °C 1024.6 hPa SE 6.1 km/h 6.4 km/h 35% 0.0 mm
12:04 22.9 °C 6.4 °C 1024.6 hPa SSE 6.5 km/h 4.7 km/h 34.5% 0.0 mm
12:09 23.4 °C 6.6 °C 1024.6 hPa Este 6.1 km/h 4.7 km/h 34% 0.0 mm
12:14 23.9 °C 6.7 °C 1024.6 hPa Este 7.2 km/h 3.2 km/h 33.1% 0.0 mm
12:19 24.3 °C 6.5 °C 1024.5 hPa Este 3.8 km/h 3.2 km/h 32% 0.0 mm
12:24 24.6 °C 6.7 °C 1024.5 hPa ENE 8.9 km/h 3.2 km/h 31.9% 0.0 mm
12:29 24.5 °C 6.5 °C 1024.5 hPa NO 7.8 km/h 4.7 km/h 31.5% 0.0 mm
12:34 24.3 °C 6.6 °C 1024.3 hPa ENE 8.2 km/h 4.7 km/h 32% 0.0 mm
12:39 24.3 °C 6.6 °C 1024.3 hPa North 5.7 km/h 4.7 km/h 32% 0.0 mm
12:44 24.5 °C 6.6 °C 1024.3 hPa NNE 11.6 km/h 4.7 km/h 31.6% 0.0 mm
12:49 24.6 °C 6.4 °C 1024.3 hPa ENE 13.1 km/h 6.4 km/h 31.2% 0.0 mm
12:54 24.4 °C 6.4 °C 1024.3 hPa NE 13 km/h 6.4 km/h 31.5% 0.0 mm
12:59 24.6 °C 6.4 °C 1024.3 hPa NNE 14.5 km/h 8.7 km/h 31.1% 0.0 mm
13:04 24.8 °C 6.5 °C 1024.2 hPa NE 15.4 km/h 8.7 km/h 30.9% 0.0 mm
13:09 24.9 °C 6.6 °C 1024.2 hPa NNE 14.6 km/h 10.3 km/h 31% 0.0 mm
13:14 25 °C 6.7 °C 1024.2 hPa NE 15 km/h 10.3 km/h 31% 0.0 mm
13:19 25.1 °C 6.8 °C 1024.1 hPa NE 16.7 km/h 10.3 km/h 31% 0.0 mm
13:24 25.2 °C 6.9 °C 1024.1 hPa ENE 14.1 km/h 9.5 km/h 31% 0.0 mm
13:29 25.5 °C 6.7 °C 1024.1 hPa NE 18.9 km/h 11.1 km/h 30% 0.0 mm
13:34 25.7 °C 6.8 °C 1023.9 hPa ENE 10.1 km/h 11.1 km/h 30% 0.0 mm
13:39 25.7 °C 6.5 °C 1023.9 hPa NE 25.6 km/h 11.1 km/h 29.3% 0.0 mm
13:44 25.8 °C 6.9 °C 1023.9 hPa NE 24.6 km/h 8.7 km/h 30% 0.0 mm
13:49 26 °C 7 °C 1023.7 hPa NE 24.5 km/h 13.7 km/h 29.9% 0.0 mm
13:54 25.9 °C 6.6 °C 1023.7 hPa ENE 21.7 km/h 13.7 km/h 29.1% 0.0 mm
13:59 26 °C 6.5 °C 1023.7 hPa ENE 24.5 km/h 13.7 km/h 28.8% 0.0 mm
14:04 26 °C 6.4 °C 1023.6 hPa NE 22.6 km/h 13 km/h 28.6% 0.0 mm
14:09 26 °C 5.9 °C 1023.6 hPa NE 20.9 km/h 14.8 km/h 27.7% 0.0 mm
14:14 26.1 °C 5.7 °C 1023.6 hPa Este 15.7 km/h 14.8 km/h 27.2% 0.0 mm
14:19 26.1 °C 5.4 °C 1023.5 hPa ENE 17.4 km/h 14.8 km/h 26.6% 0.0 mm
14:24 26.2 °C 5.8 °C 1023.5 hPa NE 17.2 km/h 11.1 km/h 27.2% 0.0 mm
14:29 26.1 °C 6.3 °C 1023.5 hPa NE 18.4 km/h 11.1 km/h 28.4% 0.0 mm
14:34 26.1 °C 6.8 °C 1023.4 hPa ENE 14.4 km/h 10.3 km/h 29.4% 0.0 mm
14:39 26.2 °C 7.2 °C 1023.4 hPa NNE 14.2 km/h 10.3 km/h 30% 0.0 mm
14:44 26.4 °C 7.1 °C 1023.4 hPa NE 18.3 km/h 9.5 km/h 29.3% 0.0 mm
14:49 26.4 °C 7.2 °C 1023.1 hPa ENE 14.3 km/h 10 km/h 29.5% 0.0 mm
14:54 26.4 °C 7.3 °C 1023.1 hPa NE 16.8 km/h 10 km/h 29.7% 0.0 mm
14:59 26.4 °C 7.5 °C 1023.1 hPa NE 16 km/h 10 km/h 30.1% 0.0 mm
15:04 26.5 °C 7.7 °C 1022.9 hPa NE 15.6 km/h 9.5 km/h 30.4% 0.0 mm
15:09 26.6 °C 7.6 °C 1022.9 hPa NE 19.5 km/h 11.1 km/h 29.9% 0.0 mm
15:14 26.7 °C 7.3 °C 1022.9 hPa Este 15.4 km/h 11.1 km/h 29.4% 0.0 mm
15:19 26.6 °C 7.1 °C 1022.8 hPa NE 16.7 km/h 11.1 km/h 29% 0.0 mm
15:24 26.5 °C 7.5 °C 1022.8 hPa NE 15 km/h 10.3 km/h 29.9% 0.0 mm
15:29 26.6 °C 7.6 °C 1022.8 hPa NNE 18.3 km/h 10.3 km/h 30% 0.0 mm
15:34 26.6 °C 7.5 °C 1022.6 hPa NE 13.4 km/h 10.3 km/h 29.7% 0.0 mm
15:39 26.6 °C 7.5 °C 1022.6 hPa NE 17.8 km/h 10.3 km/h 29.8% 0.0 mm
15:44 26.7 °C 7.5 °C 1022.6 hPa NNE 18.5 km/h 10 km/h 29.6% 0.0 mm
15:49 26.7 °C 7.2 °C 1022.4 hPa NE 21.4 km/h 12.2 km/h 29.2% 0.0 mm
15:54 26.5 °C 7.2 °C 1022.4 hPa ENE 20.1 km/h 12.2 km/h 29.5% 0.0 mm
15:59 26.6 °C 7.1 °C 1022.4 hPa NE 22.6 km/h 13 km/h 29.1% 0.0 mm
16:04 26.5 °C 7 °C 1022.3 hPa NE 21.7 km/h 13 km/h 29% 0.0 mm
16:09 26.4 °C 7 °C 1022.3 hPa NE 20 km/h 13.7 km/h 29.1% 0.0 mm
16:14 26.4 °C 7 °C 1022.3 hPa NE 22.6 km/h 13.7 km/h 29.1% 0.0 mm
16:19 26.4 °C 6.9 °C 1022.0 hPa NE 22.3 km/h 13.7 km/h 29% 0.0 mm
16:24 26.3 °C 7.3 °C 1022.0 hPa NE 20.5 km/h 13.7 km/h 29.8% 0.0 mm
16:29 26.4 °C 7 °C 1022.0 hPa NE 20.8 km/h 14 km/h 29.1% 0.0 mm
16:34 26.4 °C 7 °C 1022.0 hPa NE 19.1 km/h 14 km/h 29% 0.0 mm
16:39 26.4 °C 6.5 °C 1022.0 hPa NE 26.4 km/h 14 km/h 28.2% 0.0 mm
16:44 26.4 °C 6.4 °C 1022.0 hPa NE 22.5 km/h 13 km/h 28% 0.0 mm
16:49 26.5 °C 6.2 °C 1021.9 hPa NE 20.2 km/h 14.8 km/h 27.5% 0.0 mm
16:54 26.6 °C 6.1 °C 1021.9 hPa NNE 18.9 km/h 14.8 km/h 27% 0.0 mm
16:59 26.6 °C 6.1 °C 1021.9 hPa NE 18.2 km/h 14.8 km/h 27.1% 0.0 mm
17:04 26.6 °C 6.2 °C 1021.8 hPa NNE 19.3 km/h 11.1 km/h 27.2% 0.0 mm
17:09 26.6 °C 6.1 °C 1021.8 hPa NNE 19.1 km/h 12.2 km/h 27% 0.0 mm
17:14 26.5 °C 6.1 °C 1021.8 hPa NE 18.1 km/h 12.2 km/h 27.3% 0.0 mm
17:19 26.5 °C 6.5 °C 1021.7 hPa NE 13.9 km/h 12.2 km/h 28% 0.0 mm
17:24 26.8 °C 6.7 °C 1021.7 hPa NNE 15.3 km/h 11.9 km/h 28% 0.0 mm
17:29 26.8 °C 6.7 °C 1021.7 hPa NNE 19.1 km/h 11.9 km/h 27.8% 0.0 mm
17:34 26.6 °C 6.6 °C 1021.6 hPa NNE 18.1 km/h 9.5 km/h 28% 0.0 mm
17:39 26.7 °C 6.7 °C 1021.6 hPa NE 19 km/h 13 km/h 28% 0.0 mm
17:44 26.5 °C 6.5 °C 1021.6 hPa NE 20.2 km/h 13 km/h 28% 0.0 mm
17:49 26.3 °C 6.5 °C 1021.5 hPa NNE 18.9 km/h 13.7 km/h 28.2% 0.0 mm
17:54 26.3 °C 6.6 °C 1021.5 hPa NNE 18.7 km/h 13.7 km/h 28.5% 0.0 mm
17:59 26.3 °C 6.8 °C 1021.5 hPa NE 21.8 km/h 13.7 km/h 29% 0.0 mm
18:04 26.2 °C 6.8 °C 1021.4 hPa NNE 21 km/h 13 km/h 29% 0.0 mm
18:09 26.2 °C 6.7 °C 1021.4 hPa NE 21.8 km/h 14.8 km/h 28.8% 0.0 mm
18:14 26.2 °C 6.4 °C 1021.4 hPa NE 22.2 km/h 14.8 km/h 28.2% 0.0 mm
18:19 26.1 °C 6.2 °C 1021.3 hPa NNE 22.5 km/h 14.8 km/h 28% 0.0 mm
18:23 26.1 °C 6.2 °C 1021.3 hPa NE 20.6 km/h 13.7 km/h 28% 0.0 mm
Murcia-Puente Tocinos, España
Compliments of Weather Underground - 2.75 mb

La estación de MeteoMurcia.com, publica sus datos en los siguientes proyectos:

Weather Underground PWS IMURCIAP2 Meteoclimatic www.awekas.at

Web Analytics

Clicky